sensor_id;sensor_type;location;lat;lon;timestamp;temperature;humidity
18597;DHT22;9428;50.950;6.912;2023-03-14T00:00:58;12.00;99.90
18597;DHT22;9428;50.950;6.912;2023-03-14T00:03:46;11.90;99.90
18597;DHT22;9428;50.950;6.912;2023-03-14T00:06:35;12.60;99.90
18597;DHT22;9428;50.950;6.912;2023-03-14T00:09:22;12.00;99.90
18597;DHT22;9428;50.950;6.912;2023-03-14T00:12:09;12.00;99.90
18597;DHT22;9428;50.950;6.912;2023-03-14T00:14:56;11.90;99.90
18597;DHT22;9428;50.950;6.912;2023-03-14T00:17:44;12.00;99.90
18597;DHT22;9428;50.950;6.912;2023-03-14T00:20:32;12.00;99.90
18597;DHT22;9428;50.950;6.912;2023-03-14T00:23:19;12.30;99.90
18597;DHT22;9428;50.950;6.912;2023-03-14T00:26:08;12.20;99.90
18597;DHT22;9428;50.950;6.912;2023-03-14T00:28:55;12.00;99.90
18597;DHT22;9428;50.950;6.912;2023-03-14T00:31:43;12.00;99.90
18597;DHT22;9428;50.950;6.912;2023-03-14T00:34:30;12.00;99.90
18597;DHT22;9428;50.950;6.912;2023-03-14T00:37:19;12.10;99.90
18597;DHT22;9428;50.950;6.912;2023-03-14T00:40:07;12.10;99.90
18597;DHT22;9428;50.950;6.912;2023-03-14T00:42:54;12.00;99.90
18597;DHT22;9428;50.950;6.912;2023-03-14T00:45:42;12.10;99.90
18597;DHT22;9428;50.950;6.912;2023-03-14T00:48:29;12.00;99.90
18597;DHT22;9428;50.950;6.912;2023-03-14T00:51:16;12.10;99.90
18597;DHT22;9428;50.950;6.912;2023-03-14T00:54:05;12.10;99.90
18597;DHT22;9428;50.950;6.912;2023-03-14T00:56:52;12.20;99.90
18597;DHT22;9428;50.950;6.912;2023-03-14T00:59:39;12.70;99.90
18597;DHT22;9428;50.950;6.912;2023-03-14T01:02:26;12.10;99.90
18597;DHT22;9428;50.950;6.912;2023-03-14T01:05:14;12.10;99.90
18597;DHT22;9428;50.950;6.912;2023-03-14T01:08:01;12.00;99.90
18597;DHT22;9428;50.950;6.912;2023-03-14T01:10:50;12.80;99.90
18597;DHT22;9428;50.950;6.912;2023-03-14T01:13:37;12.00;99.90
18597;DHT22;9428;50.950;6.912;2023-03-14T01:16:26;11.90;99.90
18597;DHT22;9428;50.950;6.912;2023-03-14T01:19:13;11.70;99.90
18597;DHT22;9428;50.950;6.912;2023-03-14T01:22:01;11.80;99.90
18597;DHT22;9428;50.950;6.912;2023-03-14T01:24:48;11.00;99.90
18597;DHT22;9428;50.950;6.912;2023-03-14T01:27:37;11.00;99.90
18597;DHT22;9428;50.950;6.912;2023-03-14T01:30:24;10.90;99.90
18597;DHT22;9428;50.950;6.912;2023-03-14T01:33:11;11.00;99.90
18597;DHT22;9428;50.950;6.912;2023-03-14T01:36:00;10.90;99.90
18597;DHT22;9428;50.950;6.912;2023-03-14T01:38:48;11.00;99.90
18597;DHT22;9428;50.950;6.912;2023-03-14T01:41:36;11.00;99.90
18597;DHT22;9428;50.950;6.912;2023-03-14T01:44:24;11.00;99.90
18597;DHT22;9428;50.950;6.912;2023-03-14T01:47:12;11.00;99.90
18597;DHT22;9428;50.950;6.912;2023-03-14T01:50:01;11.00;99.90
18597;DHT22;9428;50.950;6.912;2023-03-14T01:52:50;11.00;99.90
18597;DHT22;9428;50.950;6.912;2023-03-14T01:55:39;11.00;99.90
18597;DHT22;9428;50.950;6.912;2023-03-14T01:58:27;10.90;99.90
18597;DHT22;9428;50.950;6.912;2023-03-14T02:01:21;10.80;99.90
18597;DHT22;9428;50.950;6.912;2023-03-14T02:04:11;10.80;99.90
18597;DHT22;9428;50.950;6.912;2023-03-14T02:07:04;10.80;99.90
18597;DHT22;9428;50.950;6.912;2023-03-14T02:09:52;10.70;99.90
18597;DHT22;9428;50.950;6.912;2023-03-14T02:12:41;10.90;99.90
18597;DHT22;9428;50.950;6.912;2023-03-14T02:15:28;10.70;99.90
18597;DHT22;9428;50.950;6.912;2023-03-14T02:18:17;10.70;99.90
18597;DHT22;9428;50.950;6.912;2023-03-14T02:21:11;10.80;99.90
18597;DHT22;9428;50.950;6.912;2023-03-14T02:24:07;10.60;99.90
18597;DHT22;9428;50.950;6.912;2023-03-14T02:27:14;10.50;99.90
18597;DHT22;9428;50.950;6.912;2023-03-14T02:30:04;10.50;99.90
18597;DHT22;9428;50.950;6.912;2023-03-14T02:32:55;10.60;99.90
18597;DHT22;9428;50.950;6.912;2023-03-14T02:35:46;10.70;99.90
18597;DHT22;9428;50.950;6.912;2023-03-14T02:38:37;10.70;99.90
18597;DHT22;9428;50.950;6.912;2023-03-14T02:41:28;10.80;99.90
18597;DHT22;9428;50.950;6.912;2023-03-14T02:44:16;10.80;99.90
18597;DHT22;9428;50.950;6.912;2023-03-14T02:47:04;10.60;99.90
18597;DHT22;9428;50.950;6.912;2023-03-14T02:49:53;10.70;99.90
18597;DHT22;9428;50.950;6.912;2023-03-14T02:52:45;10.60;99.90
18597;DHT22;9428;50.950;6.912;2023-03-14T02:55:32;10.70;99.90
18597;DHT22;9428;50.950;6.912;2023-03-14T02:58:19;10.60;99.90
18597;DHT22;9428;50.950;6.912;2023-03-14T03:01:08;10.70;99.90
18597;DHT22;9428;50.950;6.912;2023-03-14T03:03:55;10.70;99.90
18597;DHT22;9428;50.950;6.912;2023-03-14T03:06:42;10.70;99.90
18597;DHT22;9428;50.950;6.912;2023-03-14T03:09:29;10.70;99.90
18597;DHT22;9428;50.950;6.912;2023-03-14T03:12:17;10.60;99.90
18597;DHT22;9428;50.950;6.912;2023-03-14T03:15:05;11.00;99.90
18597;DHT22;9428;50.950;6.912;2023-03-14T03:17:53;10.80;99.90
18597;DHT22;9428;50.950;6.912;2023-03-14T03:20:41;10.80;99.90
18597;DHT22;9428;50.950;6.912;2023-03-14T03:23:28;10.80;99.90
18597;DHT22;9428;50.950;6.912;2023-03-14T03:26:15;10.80;99.90
18597;DHT22;9428;50.950;6.912;2023-03-14T03:29:03;10.80;99.90
18597;DHT22;9428;50.950;6.912;2023-03-14T03:31:50;10.80;99.90
18597;DHT22;9428;50.950;6.912;2023-03-14T03:34:39;10.90;99.90
18597;DHT22;9428;50.950;6.912;2023-03-14T03:37:26;10.90;99.90
18597;DHT22;9428;50.950;6.912;2023-03-14T03:40:13;11.10;99.90
18597;DHT22;9428;50.950;6.912;2023-03-14T03:43:00;11.00;99.90
18597;DHT22;9428;50.950;6.912;2023-03-14T03:45:49;11.00;99.90
18597;DHT22;9428;50.950;6.912;2023-03-14T03:48:36;11.00;99.90
18597;DHT22;9428;50.950;6.912;2023-03-14T03:51:25;11.00;99.90
18597;DHT22;9428;50.950;6.912;2023-03-14T03:54:13;11.00;99.90
18597;DHT22;9428;50.950;6.912;2023-03-14T03:57:00;11.10;99.90
18597;DHT22;9428;50.950;6.912;2023-03-14T03:59:47;11.10;99.90
18597;DHT22;9428;50.950;6.912;2023-03-14T04:02:34;11.00;99.90
18597;DHT22;9428;50.950;6.912;2023-03-14T04:05:21;11.80;99.90
18597;DHT22;9428;50.950;6.912;2023-03-14T04:08:10;11.10;99.90
18597;DHT22;9428;50.950;6.912;2023-03-14T04:10:58;11.00;99.90
18597;DHT22;9428;50.950;6.912;2023-03-14T04:13:45;11.00;99.90
18597;DHT22;9428;50.950;6.912;2023-03-14T04:16:33;11.60;99.90
18597;DHT22;9428;50.950;6.912;2023-03-14T04:19:20;11.10;99.90
18597;DHT22;9428;50.950;6.912;2023-03-14T04:22:08;11.00;99.90
18597;DHT22;9428;50.950;6.912;2023-03-14T04:24:56;11.10;99.90
18597;DHT22;9428;50.950;6.912;2023-03-14T04:27:44;11.00;99.90
18597;DHT22;9428;50.950;6.912;2023-03-14T04:30:31;11.00;99.90
18597;DHT22;9428;50.950;6.912;2023-03-14T04:33:18;10.90;99.90
18597;DHT22;9428;50.950;6.912;2023-03-14T04:36:06;10.90;99.90
18597;DHT22;9428;50.950;6.912;2023-03-14T04:38:54;10.90;99.90
18597;DHT22;9428;50.950;6.912;2023-03-14T04:41:43;10.90;99.90
18597;DHT22;9428;50.950;6.912;2023-03-14T04:44:31;12.00;99.90
18597;DHT22;9428;50.950;6.912;2023-03-14T04:47:18;10.90;99.90
18597;DHT22;9428;50.950;6.912;2023-03-14T04:50:06;11.10;99.90
18597;DHT22;9428;50.950;6.912;2023-03-14T04:52:53;10.90;99.90
18597;DHT22;9428;50.950;6.912;2023-03-14T04:55:40;10.80;99.90
18597;DHT22;9428;50.950;6.912;2023-03-14T04:58:29;10.80;99.90
18597;DHT22;9428;50.950;6.912;2023-03-14T05:01:16;10.80;99.90
18597;DHT22;9428;50.950;6.912;2023-03-14T05:04:05;10.80;99.90
18597;DHT22;9428;50.950;6.912;2023-03-14T05:06:52;10.80;99.90
18597;DHT22;9428;50.950;6.912;2023-03-14T05:09:39;10.70;99.90
18597;DHT22;9428;50.950;6.912;2023-03-14T05:12:27;10.80;99.90
18597;DHT22;9428;50.950;6.912;2023-03-14T05:15:15;10.70;99.90
18597;DHT22;9428;50.950;6.912;2023-03-14T05:18:02;10.90;99.90
18597;DHT22;9428;50.950;6.912;2023-03-14T05:20:50;10.80;99.90
18597;DHT22;9428;50.950;6.912;2023-03-14T05:23:37;10.70;99.90
18597;DHT22;9428;50.950;6.912;2023-03-14T05:26:25;10.80;99.90
18597;DHT22;9428;50.950;6.912;2023-03-14T05:29:12;10.90;99.90
18597;DHT22;9428;50.950;6.912;2023-03-14T05:32:00;10.80;99.90
18597;DHT22;9428;50.950;6.912;2023-03-14T05:34:48;10.90;99.90
18597;DHT22;9428;50.950;6.912;2023-03-14T05:37:35;10.80;99.90
18597;DHT22;9428;50.950;6.912;2023-03-14T05:40:22;10.80;99.90
18597;DHT22;9428;50.950;6.912;2023-03-14T05:43:09;10.80;99.90
18597;DHT22;9428;50.950;6.912;2023-03-14T05:45:56;10.90;99.90
18597;DHT22;9428;50.950;6.912;2023-03-14T05:48:45;10.80;99.90
18597;DHT22;9428;50.950;6.912;2023-03-14T05:51:32;10.80;99.90
18597;DHT22;9428;50.950;6.912;2023-03-14T05:54:19;10.90;99.90
18597;DHT22;9428;50.950;6.912;2023-03-14T05:57:07;10.80;99.90
18597;DHT22;9428;50.950;6.912;2023-03-14T05:59:54;10.80;99.90
18597;DHT22;9428;50.950;6.912;2023-03-14T06:02:41;10.80;99.90
18597;DHT22;9428;50.950;6.912;2023-03-14T06:05:29;10.80;99.90
18597;DHT22;9428;50.950;6.912;2023-03-14T06:08:17;10.90;99.90
18597;DHT22;9428;50.950;6.912;2023-03-14T06:11:05;10.80;99.90
18597;DHT22;9428;50.950;6.912;2023-03-14T06:13:52;10.90;99.90
18597;DHT22;9428;50.950;6.912;2023-03-14T06:16:39;10.80;99.90
18597;DHT22;9428;50.950;6.912;2023-03-14T06:19:26;10.80;99.90
18597;DHT22;9428;50.950;6.912;2023-03-14T06:22:15;10.70;99.90
18597;DHT22;9428;50.950;6.912;2023-03-14T06:25:02;10.80;99.90
18597;DHT22;9428;50.950;6.912;2023-03-14T06:27:50;10.80;99.90
18597;DHT22;9428;50.950;6.912;2023-03-14T06:30:37;10.80;99.90
18597;DHT22;9428;50.950;6.912;2023-03-14T06:33:24;10.80;99.90
18597;DHT22;9428;50.950;6.912;2023-03-14T06:36:12;10.80;99.90
18597;DHT22;9428;50.950;6.912;2023-03-14T06:39:00;10.90;99.90
18597;DHT22;9428;50.950;6.912;2023-03-14T06:41:47;10.90;99.90
18597;DHT22;9428;50.950;6.912;2023-03-14T06:44:35;11.00;99.90
18597;DHT22;9428;50.950;6.912;2023-03-14T06:47:22;11.00;99.90
18597;DHT22;9428;50.950;6.912;2023-03-14T06:50:10;11.00;99.90
18597;DHT22;9428;50.950;6.912;2023-03-14T06:52:57;11.10;99.90
18597;DHT22;9428;50.950;6.912;2023-03-14T06:55:46;11.10;99.90
18597;DHT22;9428;50.950;6.912;2023-03-14T06:58:33;11.10;99.90
18597;DHT22;9428;50.950;6.912;2023-03-14T07:01:23;11.00;99.90
18597;DHT22;9428;50.950;6.912;2023-03-14T07:04:11;11.20;99.90
18597;DHT22;9428;50.950;6.912;2023-03-14T07:06:58;11.10;99.90
18597;DHT22;9428;50.950;6.912;2023-03-14T07:09:45;11.20;99.90
18597;DHT22;9428;50.950;6.912;2023-03-14T07:12:34;11.10;99.90
18597;DHT22;9428;50.950;6.912;2023-03-14T07:15:21;11.60;99.90
18597;DHT22;9428;50.950;6.912;2023-03-14T07:18:08;11.20;99.90
18597;DHT22;9428;50.950;6.912;2023-03-14T07:20:55;11.20;99.90
18597;DHT22;9428;50.950;6.912;2023-03-14T07:23:42;11.90;99.90
18597;DHT22;9428;50.950;6.912;2023-03-14T07:26:29;11.30;99.90
18597;DHT22;9428;50.950;6.912;2023-03-14T07:29:18;11.30;99.90
18597;DHT22;9428;50.950;6.912;2023-03-14T07:32:05;11.90;99.90
18597;DHT22;9428;50.950;6.912;2023-03-14T07:34:53;11.30;99.90
18597;DHT22;9428;50.950;6.912;2023-03-14T07:37:40;11.50;99.90
18597;DHT22;9428;50.950;6.912;2023-03-14T07:40:28;11.60;99.90
18597;DHT22;9428;50.950;6.912;2023-03-14T07:43:15;11.50;99.90
18597;DHT22;9428;50.950;6.912;2023-03-14T07:46:04;11.50;99.90
18597;DHT22;9428;50.950;6.912;2023-03-14T07:48:51;11.50;99.90
18597;DHT22;9428;50.950;6.912;2023-03-14T07:51:38;11.50;99.90
18597;DHT22;9428;50.950;6.912;2023-03-14T07:54:26;11.50;99.90
18597;DHT22;9428;50.950;6.912;2023-03-14T07:57:13;11.50;99.90
18597;DHT22;9428;50.950;6.912;2023-03-14T08:00:00;11.60;99.90
18597;DHT22;9428;50.950;6.912;2023-03-14T08:02:50;12.10;99.90
18597;DHT22;9428;50.950;6.912;2023-03-14T08:05:37;11.60;99.90
18597;DHT22;9428;50.950;6.912;2023-03-14T08:08:25;11.60;99.90
18597;DHT22;9428;50.950;6.912;2023-03-14T08:11:13;11.70;99.90
18597;DHT22;9428;50.950;6.912;2023-03-14T08:14:00;11.70;99.90
18597;DHT22;9428;50.950;6.912;2023-03-14T08:16:47;11.70;99.90
18597;DHT22;9428;50.950;6.912;2023-03-14T08:19:35;11.60;99.90
18597;DHT22;9428;50.950;6.912;2023-03-14T08:22:23;11.70;99.90
18597;DHT22;9428;50.950;6.912;2023-03-14T08:25:10;11.70;99.90
18597;DHT22;9428;50.950;6.912;2023-03-14T08:27:57;11.70;99.90
18597;DHT22;9428;50.950;6.912;2023-03-14T08:30:45;11.70;99.90
18597;DHT22;9428;50.950;6.912;2023-03-14T08:33:32;12.50;99.90
18597;DHT22;9428;50.950;6.912;2023-03-14T08:36:20;11.70;99.90
18597;DHT22;9428;50.950;6.912;2023-03-14T08:39:08;11.70;99.90
18597;DHT22;9428;50.950;6.912;2023-03-14T08:41:55;11.70;99.90
18597;DHT22;9428;50.950;6.912;2023-03-14T08:44:42;12.20;99.90
18597;DHT22;9428;50.950;6.912;2023-03-14T08:47:30;11.90;99.90
18597;DHT22;9428;50.950;6.912;2023-03-14T08:50:17;12.00;99.90
18597;DHT22;9428;50.950;6.912;2023-03-14T08:53:06;12.00;99.90
18597;DHT22;9428;50.950;6.912;2023-03-14T08:55:53;11.90;99.90
18597;DHT22;9428;50.950;6.912;2023-03-14T08:58:40;12.00;99.90
18597;DHT22;9428;50.950;6.912;2023-03-14T09:01:28;11.80;99.90
18597;DHT22;9428;50.950;6.912;2023-03-14T09:04:16;11.70;99.90
18597;DHT22;9428;50.950;6.912;2023-03-14T09:07:03;11.20;99.90
18597;DHT22;9428;50.950;6.912;2023-03-14T09:09:51;11.20;99.90
18597;DHT22;9428;50.950;6.912;2023-03-14T09:12:39;11.20;99.90
18597;DHT22;9428;50.950;6.912;2023-03-14T09:15:26;11.90;99.90
18597;DHT22;9428;50.950;6.912;2023-03-14T09:18:13;11.20;99.90
18597;DHT22;9428;50.950;6.912;2023-03-14T09:21:01;11.30;99.90
18597;DHT22;9428;50.950;6.912;2023-03-14T09:23:48;11.30;99.90
18597;DHT22;9428;50.950;6.912;2023-03-14T09:26:37;11.20;99.90
18597;DHT22;9428;50.950;6.912;2023-03-14T09:29:24;11.30;99.90
18597;DHT22;9428;50.950;6.912;2023-03-14T09:32:12;11.40;99.90
18597;DHT22;9428;50.950;6.912;2023-03-14T09:34:59;11.30;99.90
18597;DHT22;9428;50.950;6.912;2023-03-14T09:37:46;11.80;99.90
18597;DHT22;9428;50.950;6.912;2023-03-14T09:40:35;10.90;99.90
18597;DHT22;9428;50.950;6.912;2023-03-14T09:43:25;10.40;99.90
18597;DHT22;9428;50.950;6.912;2023-03-14T09:46:13;9.90;99.90
18597;DHT22;9428;50.950;6.912;2023-03-14T09:49:01;9.90;99.90
18597;DHT22;9428;50.950;6.912;2023-03-14T09:51:51;9.80;99.90
18597;DHT22;9428;50.950;6.912;2023-03-14T09:54:43;9.60;99.90
18597;DHT22;9428;50.950;6.912;2023-03-14T09:57:33;10.20;99.90
18597;DHT22;9428;50.950;6.912;2023-03-14T10:00:23;9.50;99.90
18597;DHT22;9428;50.950;6.912;2023-03-14T10:03:31;9.50;99.90
18597;DHT22;9428;50.950;6.912;2023-03-14T10:06:18;9.50;99.90
18597;DHT22;9428;50.950;6.912;2023-03-14T10:09:08;9.60;99.90
18597;DHT22;9428;50.950;6.912;2023-03-14T10:11:57;9.40;99.90
18597;DHT22;9428;50.950;6.912;2023-03-14T10:14:48;9.40;99.90
18597;DHT22;9428;50.950;6.912;2023-03-14T10:17:43;9.30;99.90
18597;DHT22;9428;50.950;6.912;2023-03-14T10:20:33;9.30;99.90
18597;DHT22;9428;50.950;6.912;2023-03-14T10:23:27;9.10;99.90
18597;DHT22;9428;50.950;6.912;2023-03-14T10:26:16;9.00;99.90
18597;DHT22;9428;50.950;6.912;2023-03-14T10:29:10;9.40;99.90
18597;DHT22;9428;50.950;6.912;2023-03-14T10:32:00;9.00;99.90
18597;DHT22;9428;50.950;6.912;2023-03-14T10:35:06;8.90;99.90
18597;DHT22;9428;50.950;6.912;2023-03-14T10:37:57;9.00;99.90
18597;DHT22;9428;50.950;6.912;2023-03-14T10:40:47;8.90;99.90
18597;DHT22;9428;50.950;6.912;2023-03-14T10:43:37;8.80;99.90
18597;DHT22;9428;50.950;6.912;2023-03-14T10:46:26;8.90;99.90
18597;DHT22;9428;50.950;6.912;2023-03-14T10:49:26;8.80;99.90
18597;DHT22;9428;50.950;6.912;2023-03-14T10:52:20;8.80;99.90
18597;DHT22;9428;50.950;6.912;2023-03-14T10:55:11;9.00;99.90
18597;DHT22;9428;50.950;6.912;2023-03-14T10:57:59;9.10;99.90
18597;DHT22;9428;50.950;6.912;2023-03-14T11:00:48;9.00;99.90
18597;DHT22;9428;50.950;6.912;2023-03-14T11:03:37;9.00;99.90
18597;DHT22;9428;50.950;6.912;2023-03-14T11:06:34;9.00;99.90
18597;DHT22;9428;50.950;6.912;2023-03-14T11:09:29;9.20;99.90
18597;DHT22;9428;50.950;6.912;2023-03-14T11:12:32;8.80;99.90
18597;DHT22;9428;50.950;6.912;2023-03-14T11:15:24;9.10;99.90
18597;DHT22;9428;50.950;6.912;2023-03-14T11:18:25;9.10;99.90
18597;DHT22;9428;50.950;6.912;2023-03-14T11:21:21;9.40;99.90
18597;DHT22;9428;50.950;6.912;2023-03-14T11:24:31;9.90;99.90
18597;DHT22;9428;50.950;6.912;2023-03-14T11:27:22;9.50;99.90
18597;DHT22;9428;50.950;6.912;2023-03-14T11:30:18;9.30;99.90
18597;DHT22;9428;50.950;6.912;2023-03-14T11:33:14;9.50;99.90
18597;DHT22;9428;50.950;6.912;2023-03-14T11:36:06;9.60;99.90
18597;DHT22;9428;50.950;6.912;2023-03-14T11:38:57;9.60;99.90
18597;DHT22;9428;50.950;6.912;2023-03-14T11:41:47;9.50;99.90
18597;DHT22;9428;50.950;6.912;2023-03-14T11:44:37;8.50;99.90
18597;DHT22;9428;50.950;6.912;2023-03-14T11:47:29;8.10;99.90
18597;DHT22;9428;50.950;6.912;2023-03-14T11:50:17;7.80;99.90
18597;DHT22;9428;50.950;6.912;2023-03-14T11:53:11;7.90;99.90
18597;DHT22;9428;50.950;6.912;2023-03-14T11:56:01;7.90;99.90
18597;DHT22;9428;50.950;6.912;2023-03-14T11:58:57;7.90;99.90
18597;DHT22;9428;50.950;6.912;2023-03-14T12:01:54;8.00;99.90
18597;DHT22;9428;50.950;6.912;2023-03-14T12:04:53;8.00;99.90
18597;DHT22;9428;50.950;6.912;2023-03-14T12:07:51;8.20;99.90
18597;DHT22;9428;50.950;6.912;2023-03-14T12:10:52;8.40;99.90
18597;DHT22;9428;50.950;6.912;2023-03-14T12:13:46;8.30;99.90
18597;DHT22;9428;50.950;6.912;2023-03-14T12:16:38;8.40;99.90
18597;DHT22;9428;50.950;6.912;2023-03-14T12:19:32;8.50;99.90
18597;DHT22;9428;50.950;6.912;2023-03-14T12:22:29;8.50;99.90
18597;DHT22;9428;50.950;6.912;2023-03-14T12:25:19;8.50;99.90
18597;DHT22;9428;50.950;6.912;2023-03-14T12:28:19;8.60;99.90
18597;DHT22;9428;50.950;6.912;2023-03-14T12:31:42;8.40;99.90
18597;DHT22;9428;50.950;6.912;2023-03-14T12:34:31;8.50;99.90
18597;DHT22;9428;50.950;6.912;2023-03-14T12:37:37;8.50;99.90
18597;DHT22;9428;50.950;6.912;2023-03-14T12:40:31;8.60;99.90
18597;DHT22;9428;50.950;6.912;2023-03-14T12:43:26;8.50;99.90
18597;DHT22;9428;50.950;6.912;2023-03-14T12:46:19;8.60;99.90
18597;DHT22;9428;50.950;6.912;2023-03-14T12:49:09;8.50;99.90
18597;DHT22;9428;50.950;6.912;2023-03-14T12:51:59;8.40;99.90
18597;DHT22;9428;50.950;6.912;2023-03-14T12:54:51;8.40;99.90
18597;DHT22;9428;50.950;6.912;2023-03-14T12:57:46;8.40;99.90
18597;DHT22;9428;50.950;6.912;2023-03-14T13:00:38;8.50;99.90
18597;DHT22;9428;50.950;6.912;2023-03-14T13:03:37;8.30;99.90
18597;DHT22;9428;50.950;6.912;2023-03-14T13:06:46;8.30;99.90
18597;DHT22;9428;50.950;6.912;2023-03-14T13:09:54;8.20;99.90
18597;DHT22;9428;50.950;6.912;2023-03-14T13:12:47;7.90;99.90
18597;DHT22;9428;50.950;6.912;2023-03-14T13:15:39;7.90;99.90
18597;DHT22;9428;50.950;6.912;2023-03-14T13:18:29;8.10;99.90
18597;DHT22;9428;50.950;6.912;2023-03-14T13:21:21;8.10;99.90
18597;DHT22;9428;50.950;6.912;2023-03-14T13:24:22;8.30;99.90
18597;DHT22;9428;50.950;6.912;2023-03-14T13:27:17;8.50;99.90
18597;DHT22;9428;50.950;6.912;2023-03-14T13:30:16;8.30;99.90
18597;DHT22;9428;50.950;6.912;2023-03-14T13:33:04;8.30;99.90
18597;DHT22;9428;50.950;6.912;2023-03-14T13:35:55;8.50;99.90
18597;DHT22;9428;50.950;6.912;2023-03-14T13:38:43;8.40;99.90
18597;DHT22;9428;50.950;6.912;2023-03-14T13:41:31;8.40;99.90
18597;DHT22;9428;50.950;6.912;2023-03-14T13:44:31;8.20;99.90
18597;DHT22;9428;50.950;6.912;2023-03-14T13:47:20;8.50;99.90
18597;DHT22;9428;50.950;6.912;2023-03-14T13:50:14;7.80;99.90
18597;DHT22;9428;50.950;6.912;2023-03-14T13:53:02;7.90;99.90
18597;DHT22;9428;50.950;6.912;2023-03-14T13:55:49;7.70;99.90
18597;DHT22;9428;50.950;6.912;2023-03-14T13:58:39;7.90;99.90
18597;DHT22;9428;50.950;6.912;2023-03-14T14:01:28;7.90;99.90
18597;DHT22;9428;50.950;6.912;2023-03-14T14:04:19;7.90;99.90
18597;DHT22;9428;50.950;6.912;2023-03-14T14:07:10;7.90;99.90
18597;DHT22;9428;50.950;6.912;2023-03-14T14:09:59;8.00;99.90
18597;DHT22;9428;50.950;6.912;2023-03-14T14:12:50;8.10;99.90
18597;DHT22;9428;50.950;6.912;2023-03-14T14:15:45;8.20;99.90
18597;DHT22;9428;50.950;6.912;2023-03-14T14:18:34;8.10;99.90
18597;DHT22;9428;50.950;6.912;2023-03-14T14:21:22;8.00;99.90
18597;DHT22;9428;50.950;6.912;2023-03-14T14:24:12;8.20;99.90
18597;DHT22;9428;50.950;6.912;2023-03-14T14:27:02;8.10;99.90
18597;DHT22;9428;50.950;6.912;2023-03-14T14:30:00;8.30;99.90
18597;DHT22;9428;50.950;6.912;2023-03-14T14:32:50;8.20;99.90
18597;DHT22;9428;50.950;6.912;2023-03-14T14:35:38;8.30;99.90
18597;DHT22;9428;50.950;6.912;2023-03-14T14:38:25;8.20;99.90
18597;DHT22;9428;50.950;6.912;2023-03-14T14:41:13;8.30;99.90
18597;DHT22;9428;50.950;6.912;2023-03-14T14:44:00;8.40;99.90
18597;DHT22;9428;50.950;6.912;2023-03-14T14:46:49;8.20;99.90
18597;DHT22;9428;50.950;6.912;2023-03-14T14:49:38;8.40;99.90
18597;DHT22;9428;50.950;6.912;2023-03-14T14:52:34;8.40;99.90
18597;DHT22;9428;50.950;6.912;2023-03-14T14:55:30;8.40;99.90
18597;DHT22;9428;50.950;6.912;2023-03-14T14:58:23;8.30;99.90
18597;DHT22;9428;50.950;6.912;2023-03-14T15:01:14;9.20;99.90
18597;DHT22;9428;50.950;6.912;2023-03-14T15:04:04;8.50;99.90
18597;DHT22;9428;50.950;6.912;2023-03-14T15:06:57;8.50;99.90
18597;DHT22;9428;50.950;6.912;2023-03-14T15:09:44;8.40;99.90
18597;DHT22;9428;50.950;6.912;2023-03-14T15:12:32;8.60;99.90
18597;DHT22;9428;50.950;6.912;2023-03-14T15:15:19;8.60;99.90
18597;DHT22;9428;50.950;6.912;2023-03-14T15:18:12;8.50;99.90
18597;DHT22;9428;50.950;6.912;2023-03-14T15:21:01;9.20;99.90
18597;DHT22;9428;50.950;6.912;2023-03-14T15:23:49;8.40;99.90
18597;DHT22;9428;50.950;6.912;2023-03-14T15:26:37;8.40;99.90
18597;DHT22;9428;50.950;6.912;2023-03-14T15:29:24;8.50;99.90
18597;DHT22;9428;50.950;6.912;2023-03-14T15:32:12;8.50;99.90
18597;DHT22;9428;50.950;6.912;2023-03-14T15:34:59;8.50;99.90
18597;DHT22;9428;50.950;6.912;2023-03-14T15:37:46;8.60;99.90
18597;DHT22;9428;50.950;6.912;2023-03-14T15:40:35;8.50;99.90
18597;DHT22;9428;50.950;6.912;2023-03-14T15:43:23;8.80;99.90
18597;DHT22;9428;50.950;6.912;2023-03-14T15:46:10;8.90;99.90
18597;DHT22;9428;50.950;6.912;2023-03-14T15:48:58;8.70;99.90
18597;DHT22;9428;50.950;6.912;2023-03-14T15:51:45;8.60;99.90
18597;DHT22;9428;50.950;6.912;2023-03-14T15:54:32;8.60;99.90
18597;DHT22;9428;50.950;6.912;2023-03-14T15:57:20;8.50;99.90
18597;DHT22;9428;50.950;6.912;2023-03-14T16:00:11;8.50;99.90
18597;DHT22;9428;50.950;6.912;2023-03-14T16:02:59;8.50;99.90
18597;DHT22;9428;50.950;6.912;2023-03-14T16:05:46;8.10;99.90
18597;DHT22;9428;50.950;6.912;2023-03-14T16:08:33;8.30;99.90
18597;DHT22;9428;50.950;6.912;2023-03-14T16:11:20;8.20;99.90
18597;DHT22;9428;50.950;6.912;2023-03-14T16:14:09;8.20;99.90
18597;DHT22;9428;50.950;6.912;2023-03-14T16:16:56;8.20;99.90
18597;DHT22;9428;50.950;6.912;2023-03-14T16:19:44;8.20;99.90
18597;DHT22;9428;50.950;6.912;2023-03-14T16:22:32;8.40;99.90
18597;DHT22;9428;50.950;6.912;2023-03-14T16:25:21;8.30;99.90
18597;DHT22;9428;50.950;6.912;2023-03-14T16:28:09;8.20;99.90
18597;DHT22;9428;50.950;6.912;2023-03-14T16:31:01;8.20;99.90
18597;DHT22;9428;50.950;6.912;2023-03-14T16:33:50;8.30;99.90
18597;DHT22;9428;50.950;6.912;2023-03-14T16:36:37;8.30;99.90
18597;DHT22;9428;50.950;6.912;2023-03-14T16:39:25;8.50;99.90
18597;DHT22;9428;50.950;6.912;2023-03-14T16:42:13;8.50;99.90
18597;DHT22;9428;50.950;6.912;2023-03-14T16:45:01;8.40;99.90
18597;DHT22;9428;50.950;6.912;2023-03-14T16:47:49;8.80;99.90
18597;DHT22;9428;50.950;6.912;2023-03-14T16:50:39;8.40;99.90
18597;DHT22;9428;50.950;6.912;2023-03-14T16:53:26;8.50;99.90
18597;DHT22;9428;50.950;6.912;2023-03-14T16:56:15;8.40;99.90
18597;DHT22;9428;50.950;6.912;2023-03-14T16:59:03;8.20;99.90
18597;DHT22;9428;50.950;6.912;2023-03-14T17:01:50;8.20;99.90
18597;DHT22;9428;50.950;6.912;2023-03-14T17:04:40;8.20;99.90
18597;DHT22;9428;50.950;6.912;2023-03-14T17:07:27;8.10;99.90
18597;DHT22;9428;50.950;6.912;2023-03-14T17:10:15;8.10;99.90
18597;DHT22;9428;50.950;6.912;2023-03-14T17:13:02;8.20;99.90
18597;DHT22;9428;50.950;6.912;2023-03-14T17:15:52;8.20;99.90
18597;DHT22;9428;50.950;6.912;2023-03-14T17:18:39;8.10;99.90
18597;DHT22;9428;50.950;6.912;2023-03-14T17:21:28;8.20;99.90
18597;DHT22;9428;50.950;6.912;2023-03-14T17:24:15;8.20;99.90
18597;DHT22;9428;50.950;6.912;2023-03-14T17:27:03;8.10;99.90
18597;DHT22;9428;50.950;6.912;2023-03-14T17:29:51;8.30;99.90
18597;DHT22;9428;50.950;6.912;2023-03-14T17:32:38;8.20;99.90
18597;DHT22;9428;50.950;6.912;2023-03-14T17:35:26;8.10;99.90
18597;DHT22;9428;50.950;6.912;2023-03-14T17:38:15;8.10;99.90
18597;DHT22;9428;50.950;6.912;2023-03-14T17:41:03;8.10;99.90
18597;DHT22;9428;50.950;6.912;2023-03-14T17:43:50;8.10;99.90
18597;DHT22;9428;50.950;6.912;2023-03-14T17:46:37;8.10;99.90
18597;DHT22;9428;50.950;6.912;2023-03-14T17:49:25;8.00;99.90
18597;DHT22;9428;50.950;6.912;2023-03-14T17:52:12;8.10;99.90
18597;DHT22;9428;50.950;6.912;2023-03-14T17:55:01;8.00;99.90
18597;DHT22;9428;50.950;6.912;2023-03-14T17:57:49;8.10;99.90
18597;DHT22;9428;50.950;6.912;2023-03-14T18:00:36;8.00;99.90
18597;DHT22;9428;50.950;6.912;2023-03-14T18:03:23;8.00;99.90
18597;DHT22;9428;50.950;6.912;2023-03-14T18:06:12;7.90;99.90
18597;DHT22;9428;50.950;6.912;2023-03-14T18:08:59;8.00;99.90
18597;DHT22;9428;50.950;6.912;2023-03-14T18:11:50;6.70;99.90
18597;DHT22;9428;50.950;6.912;2023-03-14T18:14:38;7.90;99.90